sensor_id;sensor_type;location;lat;lon;timestamp;pressure;altitude;pressure_sealevel;temperature;humidity
29045;BME280;16133;49.486;12.176;2023-03-25T00:00:59;96477.16;;;5.46;100.00
29045;BME280;16133;49.486;12.176;2023-03-25T00:03:30;96465.97;;;5.52;100.00
29045;BME280;16133;49.486;12.176;2023-03-25T00:05:59;96468.75;;;5.58;100.00
29045;BME280;16133;49.486;12.176;2023-03-25T00:08:25;96460.97;;;5.65;100.00
29045;BME280;16133;49.486;12.176;2023-03-25T00:10:53;96454.69;;;5.74;100.00
29045;BME280;16133;49.486;12.176;2023-03-25T00:13:18;96439.16;;;5.87;100.00
29045;BME280;16133;49.486;12.176;2023-03-25T00:15:44;96431.69;;;5.99;100.00
29045;BME280;16133;49.486;12.176;2023-03-25T00:18:13;96433.91;;;6.10;100.00
29045;BME280;16133;49.486;12.176;2023-03-25T00:20:41;96437.66;;;6.15;100.00
29045;BME280;16133;49.486;12.176;2023-03-25T00:23:11;96442.03;;;6.23;100.00
29045;BME280;16133;49.486;12.176;2023-03-25T00:25:37;96438.59;;;6.22;100.00
29045;BME280;16133;49.486;12.176;2023-03-25T00:28:02;96444.69;;;6.23;100.00
29045;BME280;16133;49.486;12.176;2023-03-25T00:30:28;96444.16;;;6.28;100.00
29045;BME280;16133;49.486;12.176;2023-03-25T00:32:53;96456.59;;;6.34;100.00
29045;BME280;16133;49.486;12.176;2023-03-25T00:35:19;96456.09;;;6.38;100.00
29045;BME280;16133;49.486;12.176;2023-03-25T00:37:45;96457.28;;;6.36;100.00
29045;BME280;16133;49.486;12.176;2023-03-25T00:40:12;96469.78;;;6.34;100.00
29045;BME280;16133;49.486;12.176;2023-03-25T00:42:38;96477.09;;;6.23;100.00
29045;BME280;16133;49.486;12.176;2023-03-25T00:45:14;96495.59;;;6.15;100.00
29045;BME280;16133;49.486;12.176;2023-03-25T00:47:39;96506.50;;;6.12;100.00
29045;BME280;16133;49.486;12.176;2023-03-25T00:50:06;96503.91;;;6.04;100.00
29045;BME280;16133;49.486;12.176;2023-03-25T00:52:31;96506.19;;;6.07;100.00
29045;BME280;16133;49.486;12.176;2023-03-25T00:54:56;96506.75;;;6.17;100.00
29045;BME280;16133;49.486;12.176;2023-03-25T00:57:22;96493.91;;;6.22;100.00
29045;BME280;16133;49.486;12.176;2023-03-25T00:59:47;96490.56;;;6.29;100.00
29045;BME280;16133;49.486;12.176;2023-03-25T01:02:12;96492.34;;;6.36;100.00
29045;BME280;16133;49.486;12.176;2023-03-25T01:04:41;96496.53;;;6.45;100.00
29045;BME280;16133;49.486;12.176;2023-03-25T01:07:10;96495.84;;;6.51;100.00
29045;BME280;16133;49.486;12.176;2023-03-25T01:09:38;96485.41;;;6.58;100.00
29045;BME280;16133;49.486;12.176;2023-03-25T01:12:03;96473.22;;;6.57;100.00
29045;BME280;16133;49.486;12.176;2023-03-25T01:14:28;96480.91;;;6.66;100.00
29045;BME280;16133;49.486;12.176;2023-03-25T01:16:54;96470.16;;;6.68;100.00
29045;BME280;16133;49.486;12.176;2023-03-25T01:19:20;96463.25;;;6.67;100.00
29045;BME280;16133;49.486;12.176;2023-03-25T01:21:46;96472.59;;;6.55;100.00
29045;BME280;16133;49.486;12.176;2023-03-25T01:24:13;96483.88;;;6.41;100.00
29045;BME280;16133;49.486;12.176;2023-03-25T01:26:39;96501.09;;;6.29;100.00
29045;BME280;16133;49.486;12.176;2023-03-25T01:29:11;96517.97;;;6.19;100.00
29045;BME280;16133;49.486;12.176;2023-03-25T01:31:37;96512.13;;;6.32;100.00
29045;BME280;16133;49.486;12.176;2023-03-25T01:34:03;96504.50;;;6.37;100.00
29045;BME280;16133;49.486;12.176;2023-03-25T01:36:28;96508.94;;;6.37;100.00
29045;BME280;16133;49.486;12.176;2023-03-25T01:38:54;96499.59;;;6.34;100.00
29045;BME280;16133;49.486;12.176;2023-03-25T01:41:21;96505.69;;;6.35;100.00
29045;BME280;16133;49.486;12.176;2023-03-25T01:46:29;96498.88;;;6.17;100.00
29045;BME280;16133;49.486;12.176;2023-03-25T01:48:55;96515.09;;;6.29;100.00
29045;BME280;16133;49.486;12.176;2023-03-25T01:51:25;96501.22;;;6.35;100.00
29045;BME280;16133;49.486;12.176;2023-03-25T01:53:51;96510.69;;;6.44;100.00
29045;BME280;16133;49.486;12.176;2023-03-25T01:56:21;96512.00;;;6.48;100.00
29045;BME280;16133;49.486;12.176;2023-03-25T01:58:48;96511.09;;;6.56;100.00
29045;BME280;16133;49.486;12.176;2023-03-25T02:01:17;96537.59;;;6.62;100.00
29045;BME280;16133;49.486;12.176;2023-03-25T02:03:47;96532.97;;;6.64;100.00
29045;BME280;16133;49.486;12.176;2023-03-25T02:06:29;96542.97;;;6.69;100.00
29045;BME280;16133;49.486;12.176;2023-03-25T02:08:57;96542.47;;;6.73;100.00
29045;BME280;16133;49.486;12.176;2023-03-25T02:11:23;96540.97;;;6.71;100.00
29045;BME280;16133;49.486;12.176;2023-03-25T02:13:54;96539.00;;;6.73;100.00
29045;BME280;16133;49.486;12.176;2023-03-25T02:30:29;96510.19;;;6.49;100.00
29045;BME280;16133;49.486;12.176;2023-03-25T02:33:06;96510.91;;;6.43;100.00
29045;BME280;16133;49.486;12.176;2023-03-25T02:38:38;96516.19;;;6.12;100.00
29045;BME280;16133;49.486;12.176;2023-03-25T02:41:08;96510.50;;;6.00;100.00
29045;BME280;16133;49.486;12.176;2023-03-25T02:46:12;96515.81;;;5.84;100.00
29045;BME280;16133;49.486;12.176;2023-03-25T02:48:48;96510.22;;;5.79;100.00
29045;BME280;16133;49.486;12.176;2023-03-25T02:51:21;96511.28;;;5.70;100.00
29045;BME280;16133;49.486;12.176;2023-03-25T02:53:51;96521.16;;;5.60;100.00
29045;BME280;16133;49.486;12.176;2023-03-25T02:56:20;96516.28;;;5.49;100.00
29045;BME280;16133;49.486;12.176;2023-03-25T02:58:49;96508.22;;;5.50;100.00
29045;BME280;16133;49.486;12.176;2023-03-25T03:01:16;96503.59;;;5.52;100.00
29045;BME280;16133;49.486;12.176;2023-03-25T03:03:41;96486.97;;;5.60;100.00
29045;BME280;16133;49.486;12.176;2023-03-25T03:06:07;96472.78;;;5.69;100.00
29045;BME280;16133;49.486;12.176;2023-03-25T03:11:44;96449.69;;;5.87;100.00
29045;BME280;16133;49.486;12.176;2023-03-25T03:14:42;96440.91;;;5.95;100.00
29045;BME280;16133;49.486;12.176;2023-03-25T03:19:54;96440.03;;;6.02;100.00
29045;BME280;16133;49.486;12.176;2023-03-25T03:27:37;96466.50;;;5.78;100.00
29045;BME280;16133;49.486;12.176;2023-03-25T03:35:48;96454.50;;;5.75;100.00
29045;BME280;16133;49.486;12.176;2023-03-25T03:38:18;96454.97;;;5.79;100.00
29045;BME280;16133;49.486;12.176;2023-03-25T03:40:50;96458.41;;;5.79;100.00
29045;BME280;16133;49.486;12.176;2023-03-25T03:43:41;96446.44;;;5.77;100.00
29045;BME280;16133;49.486;12.176;2023-03-25T03:46:15;96456.28;;;5.75;100.00
29045;BME280;16133;49.486;12.176;2023-03-25T03:48:47;96463.22;;;5.76;100.00
29045;BME280;16133;49.486;12.176;2023-03-25T03:51:23;96474.44;;;5.70;100.00
29045;BME280;16133;49.486;12.176;2023-03-25T03:56:21;96491.53;;;5.74;100.00
29045;BME280;16133;49.486;12.176;2023-03-25T03:58:51;96500.72;;;5.78;100.00
29045;BME280;16133;49.486;12.176;2023-03-25T04:01:23;96491.47;;;5.90;100.00
29045;BME280;16133;49.486;12.176;2023-03-25T04:03:57;96496.69;;;5.98;100.00
29045;BME280;16133;49.486;12.176;2023-03-25T04:06:37;96503.91;;;6.04;100.00
29045;BME280;16133;49.486;12.176;2023-03-25T04:12:07;96511.75;;;6.12;100.00
29045;BME280;16133;49.486;12.176;2023-03-25T04:14:36;96532.59;;;6.22;100.00
29045;BME280;16133;49.486;12.176;2023-03-25T04:17:03;96536.34;;;6.28;100.00
29045;BME280;16133;49.486;12.176;2023-03-25T04:19:29;96547.53;;;6.30;100.00
29045;BME280;16133;49.486;12.176;2023-03-25T04:21:59;96556.91;;;6.32;100.00
29045;BME280;16133;49.486;12.176;2023-03-25T04:24:26;96559.19;;;6.35;100.00
29045;BME280;16133;49.486;12.176;2023-03-25T04:26:56;96561.63;;;6.37;100.00
29045;BME280;16133;49.486;12.176;2023-03-25T04:29:22;96560.66;;;6.38;100.00
29045;BME280;16133;49.486;12.176;2023-03-25T04:31:47;96561.31;;;6.40;100.00
29045;BME280;16133;49.486;12.176;2023-03-25T04:34:14;96564.56;;;6.42;100.00
29045;BME280;16133;49.486;12.176;2023-03-25T04:36:39;96564.56;;;6.42;100.00
29045;BME280;16133;49.486;12.176;2023-03-25T04:39:08;96565.88;;;6.46;100.00
29045;BME280;16133;49.486;12.176;2023-03-25T04:41:33;96570.97;;;6.47;100.00
29045;BME280;16133;49.486;12.176;2023-03-25T04:43:59;96568.81;;;6.51;100.00
29045;BME280;16133;49.486;12.176;2023-03-25T04:46:24;96566.81;;;6.53;100.00
29045;BME280;16133;49.486;12.176;2023-03-25T04:48:50;96571.91;;;6.54;100.00
29045;BME280;16133;49.486;12.176;2023-03-25T04:51:18;96576.19;;;6.55;100.00
29045;BME280;16133;49.486;12.176;2023-03-25T04:53:44;96575.03;;;6.58;100.00
29045;BME280;16133;49.486;12.176;2023-03-25T04:56:15;96577.47;;;6.59;100.00
29045;BME280;16133;49.486;12.176;2023-03-25T04:58:42;96581.75;;;6.60;100.00
29045;BME280;16133;49.486;12.176;2023-03-25T05:01:23;96581.28;;;6.57;100.00
29045;BME280;16133;49.486;12.176;2023-03-25T05:03:55;96583.56;;;6.60;100.00
29045;BME280;16133;49.486;12.176;2023-03-25T05:06:21;96587.69;;;6.62;100.00
29045;BME280;16133;49.486;12.176;2023-03-25T05:08:47;96579.56;;;6.64;100.00
29045;BME280;16133;49.486;12.176;2023-03-25T05:11:13;96582.88;;;6.66;100.00
29045;BME280;16133;49.486;12.176;2023-03-25T05:13:38;96583.50;;;6.68;100.00
29045;BME280;16133;49.486;12.176;2023-03-25T05:16:04;96576.31;;;6.62;100.00
29045;BME280;16133;49.486;12.176;2023-03-25T05:18:29;96580.19;;;6.74;100.00
29045;BME280;16133;49.486;12.176;2023-03-25T05:20:55;96590.91;;;6.72;100.00
29045;BME280;16133;49.486;12.176;2023-03-25T05:23:21;96599.44;;;6.74;100.00
29045;BME280;16133;49.486;12.176;2023-03-25T05:25:49;96601.97;;;6.68;100.00
29045;BME280;16133;49.486;12.176;2023-03-25T05:28:15;96610.84;;;6.67;100.00
29045;BME280;16133;49.486;12.176;2023-03-25T05:30:42;96624.13;;;6.59;100.00
29045;BME280;16133;49.486;12.176;2023-03-25T05:33:11;96630.19;;;6.59;100.00
29045;BME280;16133;49.486;12.176;2023-03-25T05:35:38;96617.19;;;6.58;100.00
29045;BME280;16133;49.486;12.176;2023-03-25T05:38:04;96621.16;;;6.54;100.00
29045;BME280;16133;49.486;12.176;2023-03-25T05:40:32;96624.13;;;6.59;100.00
29045;BME280;16133;49.486;12.176;2023-03-25T05:42:58;96621.56;;;6.43;100.00
29045;BME280;16133;49.486;12.176;2023-03-25T05:45:23;96632.88;;;6.51;100.00
29045;BME280;16133;49.486;12.176;2023-03-25T05:47:49;96632.28;;;6.64;100.00
29045;BME280;16133;49.486;12.176;2023-03-25T05:50:15;96627.50;;;6.67;100.00
29045;BME280;16133;49.486;12.176;2023-03-25T05:52:41;96616.69;;;6.85;100.00
29045;BME280;16133;49.486;12.176;2023-03-25T05:55:11;96618.09;;;6.96;100.00
29045;BME280;16133;49.486;12.176;2023-03-25T05:57:38;96629.34;;;7.12;100.00
29045;BME280;16133;49.486;12.176;2023-03-25T06:00:04;96637.56;;;7.32;100.00
29045;BME280;16133;49.486;12.176;2023-03-25T06:02:32;96642.34;;;7.51;100.00
29045;BME280;16133;49.486;12.176;2023-03-25T06:04:58;96658.03;;;7.67;100.00
29045;BME280;16133;49.486;12.176;2023-03-25T06:07:23;96653.13;;;7.64;100.00
29045;BME280;16133;49.486;12.176;2023-03-25T06:09:50;96657.78;;;7.77;100.00
29045;BME280;16133;49.486;12.176;2023-03-25T06:12:21;96662.69;;;7.80;100.00
29045;BME280;16133;49.486;12.176;2023-03-25T06:14:46;96672.44;;;7.80;100.00
29045;BME280;16133;49.486;12.176;2023-03-25T06:17:15;96683.47;;;7.83;100.00
29045;BME280;16133;49.486;12.176;2023-03-25T06:19:43;96689.47;;;7.77;100.00
29045;BME280;16133;49.486;12.176;2023-03-25T06:22:09;96693.94;;;7.77;100.00
29045;BME280;16133;49.486;12.176;2023-03-25T06:24:36;96692.84;;;7.86;100.00
29045;BME280;16133;49.486;12.176;2023-03-25T06:27:05;96702.59;;;7.85;100.00
29045;BME280;16133;49.486;12.176;2023-03-25T06:29:35;96705.75;;;7.66;100.00
29045;BME280;16133;49.486;12.176;2023-03-25T06:32:06;96697.09;;;7.72;100.00
29045;BME280;16133;49.486;12.176;2023-03-25T06:34:32;96703.31;;;7.79;98.84
29045;BME280;16133;49.486;12.176;2023-03-25T06:36:59;96700.19;;;7.61;99.08
29045;BME280;16133;49.486;12.176;2023-03-25T06:39:25;96708.09;;;7.61;100.00
29045;BME280;16133;49.486;12.176;2023-03-25T06:41:51;96697.59;;;7.53;100.00
29045;BME280;16133;49.486;12.176;2023-03-25T06:44:16;96709.16;;;7.52;100.00
29045;BME280;16133;49.486;12.176;2023-03-25T06:46:42;96715.28;;;7.67;100.00
29045;BME280;16133;49.486;12.176;2023-03-25T06:49:07;96713.03;;;7.79;99.24
29045;BME280;16133;49.486;12.176;2023-03-25T06:51:32;96719.41;;;7.69;98.56
29045;BME280;16133;49.486;12.176;2023-03-25T06:53:58;96719.69;;;7.75;99.87
29045;BME280;16133;49.486;12.176;2023-03-25T06:56:23;96716.38;;;7.58;100.00
29045;BME280;16133;49.486;12.176;2023-03-25T06:58:49;96720.91;;;7.49;99.59
29045;BME280;16133;49.486;12.176;2023-03-25T07:01:14;96718.72;;;7.53;97.32
29045;BME280;16133;49.486;12.176;2023-03-25T07:03:39;96718.06;;;7.74;96.25
29045;BME280;16133;49.486;12.176;2023-03-25T07:06:06;96730.84;;;7.85;98.08
29045;BME280;16133;49.486;12.176;2023-03-25T07:08:31;96723.56;;;8.01;94.30
29045;BME280;16133;49.486;12.176;2023-03-25T07:11:01;96724.59;;;8.00;94.72
29045;BME280;16133;49.486;12.176;2023-03-25T07:13:26;96712.19;;;8.15;95.74
29045;BME280;16133;49.486;12.176;2023-03-25T07:15:54;96719.47;;;8.28;94.70
29045;BME280;16133;49.486;12.176;2023-03-25T07:18:20;96721.81;;;8.46;90.96
29045;BME280;16133;49.486;12.176;2023-03-25T07:20:45;96716.34;;;8.62;92.46
29045;BME280;16133;49.486;12.176;2023-03-25T07:23:10;96711.84;;;8.77;92.44
29045;BME280;16133;49.486;12.176;2023-03-25T07:25:36;96713.53;;;8.99;89.27
29045;BME280;16133;49.486;12.176;2023-03-25T07:28:02;96719.22;;;9.18;87.09
29045;BME280;16133;49.486;12.176;2023-03-25T07:30:27;96713.91;;;9.18;86.58
29045;BME280;16133;49.486;12.176;2023-03-25T07:32:52;96712.97;;;9.25;86.26
29045;BME280;16133;49.486;12.176;2023-03-25T07:35:18;96719.16;;;9.11;88.14
29045;BME280;16133;49.486;12.176;2023-03-25T07:37:43;96719.03;;;9.19;88.55
29045;BME280;16133;49.486;12.176;2023-03-25T07:40:09;96725.88;;;9.13;86.55
29045;BME280;16133;49.486;12.176;2023-03-25T07:42:35;96719.69;;;9.06;86.39
29045;BME280;16133;49.486;12.176;2023-03-25T07:45:03;96709.50;;;9.03;87.36
29045;BME280;16133;49.486;12.176;2023-03-25T07:47:29;96724.22;;;8.91;85.57
29045;BME280;16133;49.486;12.176;2023-03-25T07:49:54;96712.47;;;8.79;86.16
29045;BME280;16133;49.486;12.176;2023-03-25T07:52:19;96712.47;;;8.79;86.96
29045;BME280;16133;49.486;12.176;2023-03-25T07:54:45;96723.72;;;9.02;85.48
29045;BME280;16133;49.486;12.176;2023-03-25T07:57:10;96713.91;;;9.18;84.50
29045;BME280;16133;49.486;12.176;2023-03-25T07:59:35;96717.44;;;9.25;84.51
29045;BME280;16133;49.486;12.176;2023-03-25T08:02:01;96731.06;;;9.22;84.13
29045;BME280;16133;49.486;12.176;2023-03-25T08:04:26;96717.91;;;9.49;81.98
29045;BME280;16133;49.486;12.176;2023-03-25T08:06:52;96726.25;;;9.74;81.82
29045;BME280;16133;49.486;12.176;2023-03-25T08:09:17;96729.03;;;9.87;81.45
29045;BME280;16133;49.486;12.176;2023-03-25T08:11:42;96727.69;;;9.98;79.78
29045;BME280;16133;49.486;12.176;2023-03-25T08:14:08;96739.69;;;9.94;79.99
29045;BME280;16133;49.486;12.176;2023-03-25T08:16:33;96740.31;;;9.75;78.80
29045;BME280;16133;49.486;12.176;2023-03-25T08:18:58;96739.59;;;9.38;80.49
29045;BME280;16133;49.486;12.176;2023-03-25T08:21:24;96740.53;;;9.31;81.18
29045;BME280;16133;49.486;12.176;2023-03-25T08:23:53;96743.91;;;9.25;81.57
29045;BME280;16133;49.486;12.176;2023-03-25T08:26:23;96745.75;;;9.24;81.35
29045;BME280;16133;49.486;12.176;2023-03-25T08:28:50;96748.38;;;9.24;81.73
29045;BME280;16133;49.486;12.176;2023-03-25T08:31:15;96742.41;;;9.37;81.36
29045;BME280;16133;49.486;12.176;2023-03-25T08:33:40;96735.63;;;9.49;80.73
29045;BME280;16133;49.486;12.176;2023-03-25T08:36:08;96734.84;;;9.55;80.92
29045;BME280;16133;49.486;12.176;2023-03-25T08:38:45;96736.88;;;9.53;81.92
29045;BME280;16133;49.486;12.176;2023-03-25T08:41:11;96736.00;;;9.46;79.91
29045;BME280;16133;49.486;12.176;2023-03-25T08:43:36;96745.38;;;9.48;80.23
29045;BME280;16133;49.486;12.176;2023-03-25T08:46:02;96740.78;;;9.57;81.77
29045;BME280;16133;49.486;12.176;2023-03-25T08:48:27;96741.31;;;9.46;82.79
29045;BME280;16133;49.486;12.176;2023-03-25T08:50:53;96747.16;;;9.63;86.36
29045;BME280;16133;49.486;12.176;2023-03-25T08:53:18;96729.72;;;9.96;80.12
29045;BME280;16133;49.486;12.176;2023-03-25T08:55:43;96732.88;;;10.13;83.79
29045;BME280;16133;49.486;12.176;2023-03-25T08:58:09;96733.78;;;10.20;79.12
29045;BME280;16133;49.486;12.176;2023-03-25T09:00:35;96734.97;;;10.45;77.62
29045;BME280;16133;49.486;12.176;2023-03-25T09:03:03;96726.34;;;10.77;76.62
29045;BME280;16133;49.486;12.176;2023-03-25T09:05:28;96736.72;;;11.13;74.64
29045;BME280;16133;49.486;12.176;2023-03-25T09:07:54;96732.72;;;11.37;69.30
29045;BME280;16133;49.486;12.176;2023-03-25T09:10:19;96743.50;;;11.29;70.87
29045;BME280;16133;49.486;12.176;2023-03-25T09:12:45;96725.31;;;11.26;66.92
29045;BME280;16133;49.486;12.176;2023-03-25T09:15:11;96728.56;;;11.15;69.45
29045;BME280;16133;49.486;12.176;2023-03-25T09:17:38;96738.53;;;11.06;67.63
29045;BME280;16133;49.486;12.176;2023-03-25T09:20:04;96739.44;;;10.79;69.19
29045;BME280;16133;49.486;12.176;2023-03-25T09:22:33;96734.31;;;10.77;69.48
29045;BME280;16133;49.486;12.176;2023-03-25T09:24:58;96723.78;;;10.90;67.44
29045;BME280;16133;49.486;12.176;2023-03-25T09:27:24;96723.50;;;11.26;66.52
29045;BME280;16133;49.486;12.176;2023-03-25T09:29:49;96727.16;;;11.32;66.18
29045;BME280;16133;49.486;12.176;2023-03-25T09:32:15;96718.00;;;11.34;64.55
29045;BME280;16133;49.486;12.176;2023-03-25T09:34:42;96724.97;;;11.42;64.11
29045;BME280;16133;49.486;12.176;2023-03-25T09:37:09;96722.72;;;11.52;63.50
29045;BME280;16133;49.486;12.176;2023-03-25T09:39:39;96714.34;;;11.55;63.70
29045;BME280;16133;49.486;12.176;2023-03-25T09:45:00;96699.91;;;11.84;63.68
29045;BME280;16133;49.486;12.176;2023-03-25T09:47:30;96712.56;;;11.82;61.72
29045;BME280;16133;49.486;12.176;2023-03-25T09:50:00;96705.97;;;11.58;61.28
29045;BME280;16133;49.486;12.176;2023-03-25T09:52:34;96710.31;;;11.85;61.27
29045;BME280;16133;49.486;12.176;2023-03-25T09:55:04;96694.75;;;12.22;58.93
29045;BME280;16133;49.486;12.176;2023-03-25T09:57:31;96694.53;;;12.30;59.81
29045;BME280;16133;49.486;12.176;2023-03-25T10:00:02;96708.13;;;12.66;59.23
29045;BME280;16133;49.486;12.176;2023-03-25T10:05:37;96686.81;;;12.73;58.55
29045;BME280;16133;49.486;12.176;2023-03-25T10:11:04;96680.38;;;12.42;56.95
29045;BME280;16133;49.486;12.176;2023-03-25T10:19:25;96680.44;;;11.96;59.01
29045;BME280;16133;49.486;12.176;2023-03-25T10:22:05;96689.22;;;12.04;58.50
29045;BME280;16133;49.486;12.176;2023-03-25T10:24:57;96680.84;;;12.00;57.28
29045;BME280;16133;49.486;12.176;2023-03-25T10:27:36;96681.50;;;11.95;58.33
29045;BME280;16133;49.486;12.176;2023-03-25T10:35:13;96682.88;;;12.24;59.98
29045;BME280;16133;49.486;12.176;2023-03-25T10:37:41;96688.94;;;12.51;59.94
29045;BME280;16133;49.486;12.176;2023-03-25T10:40:12;96678.69;;;12.55;58.57
29045;BME280;16133;49.486;12.176;2023-03-25T10:42:46;96684.94;;;12.86;59.63
29045;BME280;16133;49.486;12.176;2023-03-25T10:45:18;96683.72;;;13.27;59.06
29045;BME280;16133;49.486;12.176;2023-03-25T10:47:44;96680.59;;;13.36;58.72
29045;BME280;16133;49.486;12.176;2023-03-25T10:50:15;96662.28;;;13.09;60.71
29045;BME280;16133;49.486;12.176;2023-03-25T10:52:42;96671.94;;;13.10;60.39
29045;BME280;16133;49.486;12.176;2023-03-25T10:55:23;96667.84;;;13.01;61.94
29045;BME280;16133;49.486;12.176;2023-03-25T10:57:51;96660.50;;;12.52;61.30
29045;BME280;16133;49.486;12.176;2023-03-25T11:00:21;96672.19;;;12.44;62.23
29045;BME280;16133;49.486;12.176;2023-03-25T11:02:49;96657.38;;;12.68;61.46
29045;BME280;16133;49.486;12.176;2023-03-25T11:05:18;96645.09;;;13.05;60.58
29045;BME280;16133;49.486;12.176;2023-03-25T11:07:50;96641.88;;;13.34;60.09
29045;BME280;16133;49.486;12.176;2023-03-25T11:12:45;96642.03;;;13.70;56.82
29045;BME280;16133;49.486;12.176;2023-03-25T11:17:46;96636.38;;;14.03;57.21
29045;BME280;16133;49.486;12.176;2023-03-25T11:20:27;96628.88;;;13.94;55.15
29045;BME280;16133;49.486;12.176;2023-03-25T11:22:53;96620.88;;;13.94;54.63
29045;BME280;16133;49.486;12.176;2023-03-25T11:25:25;96611.97;;;14.24;54.76
29045;BME280;16133;49.486;12.176;2023-03-25T11:27:55;96616.03;;;14.27;54.48
29045;BME280;16133;49.486;12.176;2023-03-25T11:30:22;96607.81;;;14.10;55.08
29045;BME280;16133;49.486;12.176;2023-03-25T11:33:17;96605.81;;;14.24;55.91
29045;BME280;16133;49.486;12.176;2023-03-25T11:35:43;96594.94;;;14.44;55.03
29045;BME280;16133;49.486;12.176;2023-03-25T11:38:18;96597.16;;;14.47;55.20
29045;BME280;16133;49.486;12.176;2023-03-25T11:40:48;96596.63;;;14.38;55.77
29045;BME280;16133;49.486;12.176;2023-03-25T11:43:19;96585.50;;;14.05;55.79
29045;BME280;16133;49.486;12.176;2023-03-25T11:45:45;96593.41;;;13.93;54.60
29045;BME280;16133;49.486;12.176;2023-03-25T11:48:15;96591.94;;;13.72;55.15
29045;BME280;16133;49.486;12.176;2023-03-25T11:50:53;96597.59;;;13.64;56.36
29045;BME280;16133;49.486;12.176;2023-03-25T11:53:20;96611.38;;;13.55;55.60
29045;BME280;16133;49.486;12.176;2023-03-25T11:55:54;96617.75;;;13.54;57.64
29045;BME280;16133;49.486;12.176;2023-03-25T11:58:24;96616.22;;;13.39;56.93
29045;BME280;16133;49.486;12.176;2023-03-25T12:01:00;96616.53;;;13.25;57.09
29045;BME280;16133;49.486;12.176;2023-03-25T12:03:27;96594.94;;;13.58;56.91
29045;BME280;16133;49.486;12.176;2023-03-25T12:06:33;96616.09;;;13.77;58.81
29045;BME280;16133;49.486;12.176;2023-03-25T12:08:59;96616.56;;;13.74;57.11
29045;BME280;16133;49.486;12.176;2023-03-25T12:14:30;96627.06;;;13.13;59.12
29045;BME280;16133;49.486;12.176;2023-03-25T12:17:14;96628.66;;;12.76;60.95
29045;BME280;16133;49.486;12.176;2023-03-25T12:26:12;96684.13;;;10.07;81.08
29045;BME280;16133;49.486;12.176;2023-03-25T12:34:25;96677.75;;;8.24;100.00
29045;BME280;16133;49.486;12.176;2023-03-25T12:37:04;96672.66;;;8.07;100.00
29045;BME280;16133;49.486;12.176;2023-03-25T12:47:57;96662.81;;;9.17;100.00
29045;BME280;16133;49.486;12.176;2023-03-25T13:04:22;96628.75;;;10.66;100.00
29045;BME280;16133;49.486;12.176;2023-03-25T13:07:12;96615.25;;;10.54;100.00
29045;BME280;16133;49.486;12.176;2023-03-25T13:12:31;96623.88;;;10.16;100.00
29045;BME280;16133;49.486;12.176;2023-03-25T13:15:03;96634.28;;;10.24;100.00
29045;BME280;16133;49.486;12.176;2023-03-25T13:20:07;96639.06;;;11.02;94.04
29045;BME280;16133;49.486;12.176;2023-03-25T13:22:39;96641.59;;;11.30;91.66
29045;BME280;16133;49.486;12.176;2023-03-25T13:25:17;96637.50;;;11.34;89.81
29045;BME280;16133;49.486;12.176;2023-03-25T13:27:45;96632.59;;;11.44;88.69
29045;BME280;16133;49.486;12.176;2023-03-25T13:30:18;96628.09;;;11.71;88.46
29045;BME280;16133;49.486;12.176;2023-03-25T13:32:49;96618.28;;;11.84;89.34
29045;BME280;16133;49.486;12.176;2023-03-25T13:35:34;96617.22;;;12.12;89.44
29045;BME280;16133;49.486;12.176;2023-03-25T13:38:18;96625.34;;;12.36;88.13
29045;BME280;16133;49.486;12.176;2023-03-25T13:41:11;96616.38;;;12.75;83.87
29045;BME280;16133;49.486;12.176;2023-03-25T13:46:44;96609.28;;;13.01;79.61
29045;BME280;16133;49.486;12.176;2023-03-25T13:49:32;96586.84;;;12.83;80.98
29045;BME280;16133;49.486;12.176;2023-03-25T13:51:59;96589.81;;;12.62;80.90
29045;BME280;16133;49.486;12.176;2023-03-25T14:03:00;96598.66;;;11.20;84.35
29045;BME280;16133;49.486;12.176;2023-03-25T14:11:16;96622.66;;;9.63;92.43
29045;BME280;16133;49.486;12.176;2023-03-25T14:14:02;96643.41;;;9.10;94.71
29045;BME280;16133;49.486;12.176;2023-03-25T14:16:34;96667.94;;;8.47;100.00
29045;BME280;16133;49.486;12.176;2023-03-25T14:19:04;96690.34;;;7.55;100.00
29045;BME280;16133;49.486;12.176;2023-03-25T14:21:39;96681.22;;;6.66;100.00
29045;BME280;16133;49.486;12.176;2023-03-25T14:27:41;96679.31;;;4.52;100.00
29045;BME280;16133;49.486;12.176;2023-03-25T14:29:38;96659.91;;;4.37;100.00
29045;BME280;16133;49.486;12.176;2023-03-25T14:34:33;96573.41;;;5.08;100.00
29045;BME280;16133;49.486;12.176;2023-03-25T14:44:33;96499.53;;;5.42;100.00
29045;BME280;16133;49.486;12.176;2023-03-25T14:47:02;96514.78;;;5.62;100.00
29045;BME280;16133;49.486;12.176;2023-03-25T14:49:55;96477.34;;;5.75;100.00
29045;BME280;16133;49.486;12.176;2023-03-25T14:52:44;96450.34;;;5.89;100.00
29045;BME280;16133;49.486;12.176;2023-03-25T14:55:20;96438.22;;;6.03;100.00
29045;BME280;16133;49.486;12.176;2023-03-25T14:57:47;96420.72;;;6.10;100.00
29045;BME280;16133;49.486;12.176;2023-03-25T15:00:22;96421.72;;;6.32;100.00
29045;BME280;16133;49.486;12.176;2023-03-25T15:02:58;96411.22;;;6.46;100.00
29045;BME280;16133;49.486;12.176;2023-03-25T15:05:28;96394.63;;;6.60;100.00
29045;BME280;16133;49.486;12.176;2023-03-25T15:08:10;96398.38;;;6.81;100.00
29045;BME280;16133;49.486;12.176;2023-03-25T15:10:46;96408.09;;;6.95;100.00
29045;BME280;16133;49.486;12.176;2023-03-25T15:13:49;96414.84;;;6.97;100.00
29045;BME280;16133;49.486;12.176;2023-03-25T15:19:10;96388.56;;;7.18;100.00
29045;BME280;16133;49.486;12.176;2023-03-25T15:27:00;96388.19;;;6.92;100.00
29045;BME280;16133;49.486;12.176;2023-03-25T15:29:29;96382.72;;;6.94;100.00
29045;BME280;16133;49.486;12.176;2023-03-25T15:40:10;96372.66;;;7.48;100.00
29045;BME280;16133;49.486;12.176;2023-03-25T15:43:00;96367.09;;;7.57;100.00